sensor_id;sensor_type;location;lat;lon;timestamp;P1;durP1;ratioP1;P2;durP2;ratioP2
12950;SDS011;6540;50.858;7.232;2022-08-24T00:01:46;5.57;;;3.50;;
12950;SDS011;6540;50.858;7.232;2022-08-24T00:04:11;3.30;;;3.00;;
12950;SDS011;6540;50.858;7.232;2022-08-24T00:06:37;3.63;;;3.27;;
12950;SDS011;6540;50.858;7.232;2022-08-24T00:09:02;3.77;;;3.17;;
12950;SDS011;6540;50.858;7.232;2022-08-24T00:11:29;3.80;;;2.90;;
12950;SDS011;6540;50.858;7.232;2022-08-24T00:13:55;4.60;;;3.10;;
12950;SDS011;6540;50.858;7.232;2022-08-24T00:16:21;4.00;;;3.40;;
12950;SDS011;6540;50.858;7.232;2022-08-24T00:18:47;4.87;;;3.63;;
12950;SDS011;6540;50.858;7.232;2022-08-24T00:21:12;4.40;;;3.30;;
12950;SDS011;6540;50.858;7.232;2022-08-24T00:23:39;6.07;;;3.30;;
12950;SDS011;6540;50.858;7.232;2022-08-24T00:26:05;5.30;;;3.70;;
12950;SDS011;6540;50.858;7.232;2022-08-24T00:28:30;4.53;;;3.23;;
12950;SDS011;6540;50.858;7.232;2022-08-24T00:30:56;3.40;;;3.10;;
12950;SDS011;6540;50.858;7.232;2022-08-24T00:33:22;5.30;;;3.37;;
12950;SDS011;6540;50.858;7.232;2022-08-24T00:35:47;6.43;;;3.40;;
12950;SDS011;6540;50.858;7.232;2022-08-24T00:38:13;4.37;;;3.40;;
12950;SDS011;6540;50.858;7.232;2022-08-24T00:40:39;9.00;;;3.37;;
12950;SDS011;6540;50.858;7.232;2022-08-24T00:43:09;4.73;;;3.60;;
12950;SDS011;6540;50.858;7.232;2022-08-24T00:45:43;3.77;;;3.40;;
12950;SDS011;6540;50.858;7.232;2022-08-24T00:48:29;3.50;;;3.20;;
12950;SDS011;6540;50.858;7.232;2022-08-24T00:50:58;4.17;;;3.73;;
12950;SDS011;6540;50.858;7.232;2022-08-24T00:55:57;3.53;;;2.93;;
12950;SDS011;6540;50.858;7.232;2022-08-24T00:58:30;5.20;;;3.60;;
12950;SDS011;6540;50.858;7.232;2022-08-24T01:01:00;3.97;;;3.17;;
12950;SDS011;6540;50.858;7.232;2022-08-24T01:03:28;4.50;;;3.30;;
12950;SDS011;6540;50.858;7.232;2022-08-24T01:05:56;4.07;;;3.50;;
12950;SDS011;6540;50.858;7.232;2022-08-24T01:08:22;3.90;;;3.37;;
12950;SDS011;6540;50.858;7.232;2022-08-24T01:10:51;7.07;;;4.00;;
12950;SDS011;6540;50.858;7.232;2022-08-24T01:13:19;4.93;;;3.93;;
12950;SDS011;6540;50.858;7.232;2022-08-24T01:15:47;3.97;;;3.33;;
12950;SDS011;6540;50.858;7.232;2022-08-24T01:18:16;3.57;;;3.27;;
12950;SDS011;6540;50.858;7.232;2022-08-24T01:26:02;5.30;;;3.37;;
12950;SDS011;6540;50.858;7.232;2022-08-24T01:28:28;5.33;;;3.90;;
12950;SDS011;6540;50.858;7.232;2022-08-24T01:30:57;5.57;;;3.97;;
12950;SDS011;6540;50.858;7.232;2022-08-24T01:33:23;6.70;;;3.30;;
12950;SDS011;6540;50.858;7.232;2022-08-24T01:35:53;3.67;;;3.23;;
12950;SDS011;6540;50.858;7.232;2022-08-24T01:38:29;7.73;;;3.90;;
12950;SDS011;6540;50.858;7.232;2022-08-24T01:40:56;5.07;;;3.60;;
12950;SDS011;6540;50.858;7.232;2022-08-24T01:43:23;3.70;;;3.13;;
12950;SDS011;6540;50.858;7.232;2022-08-24T01:45:49;4.90;;;3.77;;
12950;SDS011;6540;50.858;7.232;2022-08-24T01:48:15;4.00;;;3.57;;
12950;SDS011;6540;50.858;7.232;2022-08-24T01:50:41;3.77;;;3.40;;
12950;SDS011;6540;50.858;7.232;2022-08-24T01:53:07;4.17;;;3.77;;
12950;SDS011;6540;50.858;7.232;2022-08-24T01:55:32;5.00;;;3.50;;
12950;SDS011;6540;50.858;7.232;2022-08-24T01:57:58;6.67;;;4.00;;
12950;SDS011;6540;50.858;7.232;2022-08-24T02:00:24;5.33;;;4.07;;
12950;SDS011;6540;50.858;7.232;2022-08-24T02:02:51;4.97;;;3.60;;
12950;SDS011;6540;50.858;7.232;2022-08-24T02:05:16;4.87;;;3.60;;
12950;SDS011;6540;50.858;7.232;2022-08-24T02:07:42;3.70;;;3.40;;
12950;SDS011;6540;50.858;7.232;2022-08-24T02:10:09;4.03;;;3.60;;
12950;SDS011;6540;50.858;7.232;2022-08-24T02:12:35;5.37;;;3.60;;
12950;SDS011;6540;50.858;7.232;2022-08-24T02:15:03;7.27;;;4.10;;
12950;SDS011;6540;50.858;7.232;2022-08-24T02:17:30;4.07;;;3.73;;
12950;SDS011;6540;50.858;7.232;2022-08-24T02:19:55;4.30;;;3.90;;
12950;SDS011;6540;50.858;7.232;2022-08-24T02:22:21;5.90;;;4.23;;
12950;SDS011;6540;50.858;7.232;2022-08-24T02:24:46;4.57;;;4.07;;
12950;SDS011;6540;50.858;7.232;2022-08-24T02:27:12;6.13;;;3.73;;
12950;SDS011;6540;50.858;7.232;2022-08-24T02:29:38;6.10;;;4.13;;
12950;SDS011;6540;50.858;7.232;2022-08-24T02:32:03;4.30;;;3.77;;
12950;SDS011;6540;50.858;7.232;2022-08-24T02:34:29;3.80;;;3.40;;
12950;SDS011;6540;50.858;7.232;2022-08-24T02:36:55;4.83;;;3.60;;
12950;SDS011;6540;50.858;7.232;2022-08-24T02:39:20;4.43;;;3.37;;
12950;SDS011;6540;50.858;7.232;2022-08-24T02:41:46;4.67;;;3.80;;
12950;SDS011;6540;50.858;7.232;2022-08-24T02:44:11;4.23;;;3.90;;
12950;SDS011;6540;50.858;7.232;2022-08-24T02:46:37;4.90;;;3.80;;
12950;SDS011;6540;50.858;7.232;2022-08-24T02:49:03;5.07;;;3.83;;
12950;SDS011;6540;50.858;7.232;2022-08-24T02:51:29;5.30;;;3.97;;
12950;SDS011;6540;50.858;7.232;2022-08-24T02:53:57;3.97;;;3.67;;
12950;SDS011;6540;50.858;7.232;2022-08-24T02:56:24;3.97;;;3.67;;
12950;SDS011;6540;50.858;7.232;2022-08-24T02:58:51;5.87;;;4.40;;
12950;SDS011;6540;50.858;7.232;2022-08-24T03:01:16;4.97;;;3.97;;
12950;SDS011;6540;50.858;7.232;2022-08-24T03:03:43;5.20;;;4.20;;
12950;SDS011;6540;50.858;7.232;2022-08-24T03:06:08;4.03;;;3.73;;
12950;SDS011;6540;50.858;7.232;2022-08-24T03:08:35;4.53;;;4.13;;
12950;SDS011;6540;50.858;7.232;2022-08-24T03:11:00;5.47;;;3.97;;
12950;SDS011;6540;50.858;7.232;2022-08-24T03:13:27;6.83;;;4.53;;
12950;SDS011;6540;50.858;7.232;2022-08-24T03:15:53;4.83;;;3.90;;
12950;SDS011;6540;50.858;7.232;2022-08-24T03:18:19;6.10;;;4.13;;
12950;SDS011;6540;50.858;7.232;2022-08-24T03:20:46;5.43;;;4.57;;
12950;SDS011;6540;50.858;7.232;2022-08-24T03:23:11;7.57;;;4.03;;
12950;SDS011;6540;50.858;7.232;2022-08-24T03:25:37;5.60;;;4.40;;
12950;SDS011;6540;50.858;7.232;2022-08-24T03:28:02;5.00;;;3.97;;
12950;SDS011;6540;50.858;7.232;2022-08-24T03:30:28;4.70;;;4.30;;
12950;SDS011;6540;50.858;7.232;2022-08-24T03:32:53;8.60;;;4.20;;
12950;SDS011;6540;50.858;7.232;2022-08-24T03:35:19;7.47;;;4.43;;
12950;SDS011;6540;50.858;7.232;2022-08-24T03:37:46;4.80;;;3.90;;
12950;SDS011;6540;50.858;7.232;2022-08-24T03:40:13;6.83;;;4.20;;
12950;SDS011;6540;50.858;7.232;2022-08-24T03:42:38;4.57;;;4.13;;
12950;SDS011;6540;50.858;7.232;2022-08-24T03:45:04;5.23;;;3.90;;
12950;SDS011;6540;50.858;7.232;2022-08-24T03:47:30;4.80;;;4.33;;
12950;SDS011;6540;50.858;7.232;2022-08-24T03:49:55;6.07;;;4.27;;
12950;SDS011;6540;50.858;7.232;2022-08-24T03:52:21;5.07;;;4.67;;
12950;SDS011;6540;50.858;7.232;2022-08-24T03:54:47;6.10;;;4.30;;
12950;SDS011;6540;50.858;7.232;2022-08-24T03:57:12;5.13;;;4.60;;
12950;SDS011;6540;50.858;7.232;2022-08-24T03:59:38;4.60;;;4.10;;
12950;SDS011;6540;50.858;7.232;2022-08-24T04:02:03;5.30;;;4.80;;
12950;SDS011;6540;50.858;7.232;2022-08-24T04:04:29;5.10;;;4.60;;
12950;SDS011;6540;50.858;7.232;2022-08-24T04:06:55;5.17;;;4.23;;
12950;SDS011;6540;50.858;7.232;2022-08-24T04:09:21;7.47;;;4.63;;
12950;SDS011;6540;50.858;7.232;2022-08-24T04:11:47;6.47;;;4.43;;
12950;SDS011;6540;50.858;7.232;2022-08-24T04:14:13;5.17;;;4.63;;
12950;SDS011;6540;50.858;7.232;2022-08-24T04:16:40;8.23;;;4.43;;
12950;SDS011;6540;50.858;7.232;2022-08-24T04:19:05;4.67;;;4.13;;
12950;SDS011;6540;50.858;7.232;2022-08-24T04:21:31;6.27;;;4.83;;
12950;SDS011;6540;50.858;7.232;2022-08-24T04:23:59;6.70;;;4.60;;
12950;SDS011;6540;50.858;7.232;2022-08-24T04:26:25;5.90;;;4.67;;
12950;SDS011;6540;50.858;7.232;2022-08-24T04:28:52;6.07;;;4.30;;
12950;SDS011;6540;50.858;7.232;2022-08-24T04:31:18;4.83;;;4.37;;
12950;SDS011;6540;50.858;7.232;2022-08-24T04:33:44;6.10;;;5.13;;
12950;SDS011;6540;50.858;7.232;2022-08-24T04:36:11;5.13;;;4.13;;
12950;SDS011;6540;50.858;7.232;2022-08-24T04:38:37;5.73;;;4.77;;
12950;SDS011;6540;50.858;7.232;2022-08-24T04:41:03;5.00;;;4.60;;
12950;SDS011;6540;50.858;7.232;2022-08-24T04:43:30;5.60;;;4.90;;
12950;SDS011;6540;50.858;7.232;2022-08-24T04:45:56;9.07;;;5.00;;
12950;SDS011;6540;50.858;7.232;2022-08-24T04:48:22;7.40;;;4.87;;
12950;SDS011;6540;50.858;7.232;2022-08-24T04:50:47;5.90;;;4.63;;
12950;SDS011;6540;50.858;7.232;2022-08-24T04:53:13;6.57;;;5.00;;
12950;SDS011;6540;50.858;7.232;2022-08-24T04:55:41;5.93;;;4.97;;
12950;SDS011;6540;50.858;7.232;2022-08-24T04:58:09;11.07;;;4.57;;
12950;SDS011;6540;50.858;7.232;2022-08-24T05:00:35;5.80;;;5.20;;
12950;SDS011;6540;50.858;7.232;2022-08-24T05:03:00;5.27;;;4.77;;
12950;SDS011;6540;50.858;7.232;2022-08-24T05:05:26;6.87;;;4.70;;
12950;SDS011;6540;50.858;7.232;2022-08-24T05:07:51;5.67;;;4.93;;
12950;SDS011;6540;50.858;7.232;2022-08-24T05:10:17;5.63;;;4.53;;
12950;SDS011;6540;50.858;7.232;2022-08-24T05:12:42;5.33;;;4.53;;
12950;SDS011;6540;50.858;7.232;2022-08-24T05:15:08;5.70;;;4.93;;
12950;SDS011;6540;50.858;7.232;2022-08-24T05:17:34;5.97;;;4.87;;
12950;SDS011;6540;50.858;7.232;2022-08-24T05:19:59;5.60;;;5.10;;
12950;SDS011;6540;50.858;7.232;2022-08-24T05:22:25;5.20;;;4.60;;
12950;SDS011;6540;50.858;7.232;2022-08-24T05:24:50;6.23;;;4.67;;
12950;SDS011;6540;50.858;7.232;2022-08-24T05:27:16;6.90;;;4.60;;
12950;SDS011;6540;50.858;7.232;2022-08-24T05:29:43;7.50;;;4.33;;
12950;SDS011;6540;50.858;7.232;2022-08-24T05:32:09;4.77;;;4.27;;
12950;SDS011;6540;50.858;7.232;2022-08-24T05:34:35;5.30;;;4.10;;
12950;SDS011;6540;50.858;7.232;2022-08-24T05:37:00;5.53;;;4.60;;
12950;SDS011;6540;50.858;7.232;2022-08-24T05:39:25;4.97;;;4.47;;
12950;SDS011;6540;50.858;7.232;2022-08-24T05:41:51;4.50;;;4.07;;
12950;SDS011;6540;50.858;7.232;2022-08-24T05:44:16;6.27;;;4.73;;
12950;SDS011;6540;50.858;7.232;2022-08-24T05:46:42;9.43;;;4.30;;
12950;SDS011;6540;50.858;7.232;2022-08-24T05:49:09;5.27;;;4.77;;
12950;SDS011;6540;50.858;7.232;2022-08-24T05:51:34;6.67;;;5.17;;
12950;SDS011;6540;50.858;7.232;2022-08-24T05:54:00;6.73;;;5.10;;
12950;SDS011;6540;50.858;7.232;2022-08-24T05:56:28;5.17;;;4.63;;
12950;SDS011;6540;50.858;7.232;2022-08-24T05:58:53;6.90;;;5.00;;
12950;SDS011;6540;50.858;7.232;2022-08-24T06:01:24;8.40;;;4.93;;
12950;SDS011;6540;50.858;7.232;2022-08-24T06:03:50;4.63;;;4.23;;
12950;SDS011;6540;50.858;7.232;2022-08-24T06:06:18;5.00;;;4.50;;
12950;SDS011;6540;50.858;7.232;2022-08-24T06:08:46;5.30;;;4.80;;
12950;SDS011;6540;50.858;7.232;2022-08-24T06:11:22;5.60;;;4.73;;
12950;SDS011;6540;50.858;7.232;2022-08-24T06:13:49;7.67;;;4.57;;
12950;SDS011;6540;50.858;7.232;2022-08-24T06:16:16;5.33;;;4.83;;
12950;SDS011;6540;50.858;7.232;2022-08-24T06:18:41;6.20;;;5.60;;
12950;SDS011;6540;50.858;7.232;2022-08-24T06:21:08;7.03;;;4.70;;
12950;SDS011;6540;50.858;7.232;2022-08-24T06:23:38;6.83;;;4.43;;
12950;SDS011;6540;50.858;7.232;2022-08-24T06:26:05;6.57;;;4.57;;
12950;SDS011;6540;50.858;7.232;2022-08-24T06:28:50;5.23;;;4.73;;
12950;SDS011;6540;50.858;7.232;2022-08-24T06:31:16;5.70;;;4.37;;
12950;SDS011;6540;50.858;7.232;2022-08-24T06:33:42;5.10;;;4.57;;
12950;SDS011;6540;50.858;7.232;2022-08-24T06:36:08;5.10;;;4.57;;
12950;SDS011;6540;50.858;7.232;2022-08-24T06:38:33;4.63;;;3.90;;
12950;SDS011;6540;50.858;7.232;2022-08-24T06:40:59;5.00;;;3.63;;
12950;SDS011;6540;50.858;7.232;2022-08-24T06:43:25;5.97;;;4.57;;
12950;SDS011;6540;50.858;7.232;2022-08-24T06:45:50;4.50;;;4.03;;
12950;SDS011;6540;50.858;7.232;2022-08-24T06:48:17;6.37;;;4.50;;
12950;SDS011;6540;50.858;7.232;2022-08-24T06:50:42;6.27;;;3.67;;
12950;SDS011;6540;50.858;7.232;2022-08-24T06:53:08;4.27;;;3.30;;
12950;SDS011;6540;50.858;7.232;2022-08-24T06:55:42;4.87;;;3.70;;
12950;SDS011;6540;50.858;7.232;2022-08-24T06:58:08;6.40;;;3.50;;
12950;SDS011;6540;50.858;7.232;2022-08-24T07:00:34;6.40;;;2.93;;
12950;SDS011;6540;50.858;7.232;2022-08-24T07:02:59;3.93;;;3.47;;
12950;SDS011;6540;50.858;7.232;2022-08-24T07:05:26;4.73;;;3.20;;
12950;SDS011;6540;50.858;7.232;2022-08-24T07:07:51;3.60;;;2.70;;
12950;SDS011;6540;50.858;7.232;2022-08-24T07:10:17;3.70;;;2.97;;
12950;SDS011;6540;50.858;7.232;2022-08-24T07:12:43;5.33;;;2.80;;
12950;SDS011;6540;50.858;7.232;2022-08-24T07:15:08;5.17;;;2.67;;
12950;SDS011;6540;50.858;7.232;2022-08-24T07:17:34;2.83;;;2.60;;
12950;SDS011;6540;50.858;7.232;2022-08-24T07:19:59;4.23;;;2.73;;
12950;SDS011;6540;50.858;7.232;2022-08-24T07:22:25;4.43;;;2.67;;
12950;SDS011;6540;50.858;7.232;2022-08-24T07:24:50;3.90;;;2.73;;
12950;SDS011;6540;50.858;7.232;2022-08-24T07:27:16;3.83;;;2.90;;
12950;SDS011;6540;50.858;7.232;2022-08-24T07:29:41;4.57;;;2.90;;
12950;SDS011;6540;50.858;7.232;2022-08-24T07:32:07;2.83;;;2.30;;
12950;SDS011;6540;50.858;7.232;2022-08-24T07:34:34;2.97;;;2.47;;
12950;SDS011;6540;50.858;7.232;2022-08-24T07:36:59;3.40;;;2.30;;
12950;SDS011;6540;50.858;7.232;2022-08-24T07:39:25;4.20;;;2.60;;
12950;SDS011;6540;50.858;7.232;2022-08-24T07:41:51;2.53;;;2.27;;
12950;SDS011;6540;50.858;7.232;2022-08-24T07:44:16;3.53;;;2.47;;
12950;SDS011;6540;50.858;7.232;2022-08-24T07:46:42;2.97;;;2.30;;
12950;SDS011;6540;50.858;7.232;2022-08-24T07:49:07;3.13;;;2.13;;
12950;SDS011;6540;50.858;7.232;2022-08-24T07:51:35;2.90;;;2.57;;
12950;SDS011;6540;50.858;7.232;2022-08-24T07:54:01;3.67;;;2.60;;
12950;SDS011;6540;50.858;7.232;2022-08-24T07:56:26;4.87;;;2.23;;
12950;SDS011;6540;50.858;7.232;2022-08-24T07:58:53;6.37;;;2.60;;
12950;SDS011;6540;50.858;7.232;2022-08-24T08:01:18;2.70;;;2.50;;
12950;SDS011;6540;50.858;7.232;2022-08-24T08:03:45;4.43;;;2.60;;
12950;SDS011;6540;50.858;7.232;2022-08-24T08:06:11;3.43;;;2.40;;
12950;SDS011;6540;50.858;7.232;2022-08-24T08:08:37;6.27;;;2.67;;
12950;SDS011;6540;50.858;7.232;2022-08-24T08:11:03;4.63;;;3.20;;
12950;SDS011;6540;50.858;7.232;2022-08-24T08:13:29;4.60;;;3.00;;
12950;SDS011;6540;50.858;7.232;2022-08-24T08:15:55;2.93;;;2.53;;
12950;SDS011;6540;50.858;7.232;2022-08-24T08:18:22;2.70;;;2.50;;
12950;SDS011;6540;50.858;7.232;2022-08-24T08:20:47;4.17;;;2.73;;
12950;SDS011;6540;50.858;7.232;2022-08-24T08:23:14;3.80;;;2.27;;
12950;SDS011;6540;50.858;7.232;2022-08-24T08:25:58;3.60;;;2.80;;
12950;SDS011;6540;50.858;7.232;2022-08-24T08:28:25;4.47;;;3.00;;
12950;SDS011;6540;50.858;7.232;2022-08-24T08:30:57;4.80;;;2.60;;
12950;SDS011;6540;50.858;7.232;2022-08-24T08:33:25;4.50;;;3.00;;
12950;SDS011;6540;50.858;7.232;2022-08-24T08:35:55;3.10;;;2.47;;
12950;SDS011;6540;50.858;7.232;2022-08-24T08:38:29;3.00;;;2.70;;
12950;SDS011;6540;50.858;7.232;2022-08-24T08:43:45;2.60;;;2.40;;
12950;SDS011;6540;50.858;7.232;2022-08-24T08:49:27;3.53;;;2.67;;
12950;SDS011;6540;50.858;7.232;2022-08-24T09:00:17;3.13;;;2.80;;
12950;SDS011;6540;50.858;7.232;2022-08-24T09:05:43;4.70;;;2.73;;
12950;SDS011;6540;50.858;7.232;2022-08-24T09:30:26;4.17;;;3.43;;
12950;SDS011;6540;50.858;7.232;2022-08-24T09:33:07;4.90;;;3.20;;
12950;SDS011;6540;50.858;7.232;2022-08-24T09:58:03;3.47;;;2.73;;
12950;SDS011;6540;50.858;7.232;2022-08-24T10:13:50;2.87;;;2.53;;
12950;SDS011;6540;50.858;7.232;2022-08-24T10:19:35;4.33;;;2.80;;
12950;SDS011;6540;50.858;7.232;2022-08-24T10:54:05;2.80;;;2.60;;
12950;SDS011;6540;50.858;7.232;2022-08-24T10:59:22;3.00;;;2.33;;
12950;SDS011;6540;50.858;7.232;2022-08-24T11:04:34;3.97;;;1.90;;
12950;SDS011;6540;50.858;7.232;2022-08-24T11:07:03;2.10;;;1.90;;
12950;SDS011;6540;50.858;7.232;2022-08-24T11:12:19;3.80;;;2.37;;
12950;SDS011;6540;50.858;7.232;2022-08-24T11:14:52;2.93;;;2.33;;
12950;SDS011;6540;50.858;7.232;2022-08-24T11:17:20;3.17;;;2.80;;
12950;SDS011;6540;50.858;7.232;2022-08-24T11:19:47;3.90;;;2.20;;
12950;SDS011;6540;50.858;7.232;2022-08-24T11:25:03;3.77;;;2.40;;
12950;SDS011;6540;50.858;7.232;2022-08-24T11:27:45;2.43;;;2.20;;
12950;SDS011;6540;50.858;7.232;2022-08-24T11:30:25;2.77;;;2.40;;
12950;SDS011;6540;50.858;7.232;2022-08-24T11:33:01;2.30;;;2.00;;
12950;SDS011;6540;50.858;7.232;2022-08-24T11:38:02;4.83;;;2.50;;
12950;SDS011;6540;50.858;7.232;2022-08-24T11:40:29;4.13;;;2.60;;
12950;SDS011;6540;50.858;7.232;2022-08-24T11:43:15;2.53;;;2.33;;
12950;SDS011;6540;50.858;7.232;2022-08-24T11:46:11;4.40;;;2.37;;
12950;SDS011;6540;50.858;7.232;2022-08-24T11:51:31;3.50;;;2.17;;
12950;SDS011;6540;50.858;7.232;2022-08-24T11:54:49;2.30;;;2.10;;
12950;SDS011;6540;50.858;7.232;2022-08-24T12:21:44;2.43;;;2.00;;
12950;SDS011;6540;50.858;7.232;2022-08-24T12:24:25;2.33;;;2.13;;
12950;SDS011;6540;50.858;7.232;2022-08-24T12:26:57;3.07;;;2.50;;
12950;SDS011;6540;50.858;7.232;2022-08-24T12:29:41;5.13;;;1.97;;
12950;SDS011;6540;50.858;7.232;2022-08-24T12:32:17;3.90;;;2.10;;
12950;SDS011;6540;50.858;7.232;2022-08-24T12:37:29;5.10;;;2.80;;
12950;SDS011;6540;50.858;7.232;2022-08-24T12:43:34;2.77;;;2.27;;
12950;SDS011;6540;50.858;7.232;2022-08-24T12:45:44;4.77;;;2.47;;
12950;SDS011;6540;50.858;7.232;2022-08-24T12:48:22;2.88;;;2.22;;
12950;SDS011;6540;50.858;7.232;2022-08-24T12:51:17;4.47;;;2.65;;
12950;SDS011;6540;50.858;7.232;2022-08-24T13:04:43;2.70;;;2.50;;
12950;SDS011;6540;50.858;7.232;2022-08-24T13:07:30;2.40;;;2.20;;
12950;SDS011;6540;50.858;7.232;2022-08-24T13:25:41;2.35;;;2.15;;
12950;SDS011;6540;50.858;7.232;2022-08-24T13:36:01;3.90;;;2.17;;
12950;SDS011;6540;50.858;7.232;2022-08-24T13:46:50;2.38;;;2.17;;
12950;SDS011;6540;50.858;7.232;2022-08-24T13:49:41;4.05;;;2.92;;
12950;SDS011;6540;50.858;7.232;2022-08-24T13:58:12;2.73;;;2.30;;
12950;SDS011;6540;50.858;7.232;2022-08-24T14:00:46;2.90;;;2.60;;
12950;SDS011;6540;50.858;7.232;2022-08-24T14:06:07;3.00;;;2.70;;
12950;SDS011;6540;50.858;7.232;2022-08-24T14:16:51;4.30;;;2.70;;
12950;SDS011;6540;50.858;7.232;2022-08-24T14:20:03;4.03;;;2.30;;
12950;SDS011;6540;50.858;7.232;2022-08-24T14:25:22;2.72;;;2.40;;
12950;SDS011;6540;50.858;7.232;2022-08-24T14:35:27;2.88;;;1.88;;
12950;SDS011;6540;50.858;7.232;2022-08-24T14:49:23;4.10;;;2.10;;
12950;SDS011;6540;50.858;7.232;2022-08-24T15:02:54;12.55;;;3.50;;
12950;SDS011;6540;50.858;7.232;2022-08-24T15:05:45;4.43;;;2.80;;
12950;SDS011;6540;50.858;7.232;2022-08-24T15:08:30;2.93;;;2.13;;
12950;SDS011;6540;50.858;7.232;2022-08-24T15:11:00;3.63;;;2.47;;
12950;SDS011;6540;50.858;7.232;2022-08-24T15:13:40;3.15;;;2.25;;
12950;SDS011;6540;50.858;7.232;2022-08-24T15:24:37;2.97;;;2.43;;
12950;SDS011;6540;50.858;7.232;2022-08-24T15:30:23;2.38;;;2.13;;
12950;SDS011;6540;50.858;7.232;2022-08-24T15:32:53;2.38;;;2.17;;
12950;SDS011;6540;50.858;7.232;2022-08-24T15:37:50;5.15;;;2.55;;
12950;SDS011;6540;50.858;7.232;2022-08-24T15:40:23;3.35;;;2.50;;
12950;SDS011;6540;50.858;7.232;2022-08-24T15:42:53;2.75;;;2.47;;
12950;SDS011;6540;50.858;7.232;2022-08-24T15:45:21;5.03;;;2.40;;
12950;SDS011;6540;50.858;7.232;2022-08-24T15:47:47;5.10;;;2.10;;
12950;SDS011;6540;50.858;7.232;2022-08-24T15:57:57;2.40;;;2.20;;
12950;SDS011;6540;50.858;7.232;2022-08-24T16:00:37;2.83;;;2.20;;
12950;SDS011;6540;50.858;7.232;2022-08-24T16:06:18;4.47;;;2.60;;
12950;SDS011;6540;50.858;7.232;2022-08-24T16:14:22;2.67;;;2.40;;
12950;SDS011;6540;50.858;7.232;2022-08-24T16:16:50;3.38;;;2.63;;
12950;SDS011;6540;50.858;7.232;2022-08-24T16:19:17;3.05;;;2.72;;
12950;SDS011;6540;50.858;7.232;2022-08-24T16:21:58;2.63;;;2.30;;
12950;SDS011;6540;50.858;7.232;2022-08-24T16:24:34;3.05;;;2.75;;
12950;SDS011;6540;50.858;7.232;2022-08-24T16:32:08;2.60;;;2.40;;
12950;SDS011;6540;50.858;7.232;2022-08-24T16:34:48;2.70;;;2.50;;
12950;SDS011;6540;50.858;7.232;2022-08-24T16:37:33;6.22;;;4.43;;
12950;SDS011;6540;50.858;7.232;2022-08-24T16:39:59;4.18;;;3.00;;
12950;SDS011;6540;50.858;7.232;2022-08-24T16:42:25;5.10;;;2.38;;
12950;SDS011;6540;50.858;7.232;2022-08-24T16:44:53;4.75;;;2.40;;
12950;SDS011;6540;50.858;7.232;2022-08-24T16:47:19;3.58;;;2.80;;
12950;SDS011;6540;50.858;7.232;2022-08-24T16:49:45;6.32;;;5.32;;
12950;SDS011;6540;50.858;7.232;2022-08-24T16:52:12;4.07;;;3.13;;
12950;SDS011;6540;50.858;7.232;2022-08-24T16:54:38;5.93;;;4.60;;
12950;SDS011;6540;50.858;7.232;2022-08-24T16:57:11;4.63;;;3.08;;
12950;SDS011;6540;50.858;7.232;2022-08-24T16:59:40;2.53;;;2.33;;
12950;SDS011;6540;50.858;7.232;2022-08-24T17:02:08;4.57;;;3.10;;
12950;SDS011;6540;50.858;7.232;2022-08-24T17:04:36;2.77;;;2.20;;
12950;SDS011;6540;50.858;7.232;2022-08-24T17:07:02;4.70;;;3.77;;
12950;SDS011;6540;50.858;7.232;2022-08-24T17:09:31;11.00;;;7.17;;
12950;SDS011;6540;50.858;7.232;2022-08-24T17:11:58;19.87;;;12.90;;
12950;SDS011;6540;50.858;7.232;2022-08-24T17:14:23;3.63;;;3.00;;
12950;SDS011;6540;50.858;7.232;2022-08-24T17:16:49;2.80;;;2.60;;
12950;SDS011;6540;50.858;7.232;2022-08-24T17:19:16;3.87;;;2.63;;
12950;SDS011;6540;50.858;7.232;2022-08-24T17:21:43;4.17;;;2.60;;
12950;SDS011;6540;50.858;7.232;2022-08-24T17:24:09;2.60;;;2.27;;
12950;SDS011;6540;50.858;7.232;2022-08-24T17:26:36;2.80;;;2.60;;
12950;SDS011;6540;50.858;7.232;2022-08-24T17:29:03;2.93;;;2.43;;
12950;SDS011;6540;50.858;7.232;2022-08-24T17:31:30;2.80;;;2.50;;
12950;SDS011;6540;50.858;7.232;2022-08-24T17:33:57;4.73;;;2.60;;
12950;SDS011;6540;50.858;7.232;2022-08-24T17:36:23;2.87;;;2.67;;
12950;SDS011;6540;50.858;7.232;2022-08-24T17:38:51;4.37;;;2.30;;
12950;SDS011;6540;50.858;7.232;2022-08-24T17:41:19;4.43;;;2.17;;
12950;SDS011;6540;50.858;7.232;2022-08-24T17:43:45;3.83;;;2.67;;
12950;SDS011;6540;50.858;7.232;2022-08-24T17:46:11;9.70;;;4.47;;
12950;SDS011;6540;50.858;7.232;2022-08-24T17:48:41;4.20;;;2.80;;
12950;SDS011;6540;50.858;7.232;2022-08-24T17:51:08;5.80;;;2.40;;
12950;SDS011;6540;50.858;7.232;2022-08-24T17:53:34;5.30;;;2.97;;
12950;SDS011;6540;50.858;7.232;2022-08-24T17:56:00;3.73;;;2.27;;
12950;SDS011;6540;50.858;7.232;2022-08-24T17:58:27;4.70;;;2.60;;
12950;SDS011;6540;50.858;7.232;2022-08-24T18:00:53;5.63;;;2.70;;
12950;SDS011;6540;50.858;7.232;2022-08-24T18:03:18;2.60;;;2.40;;
12950;SDS011;6540;50.858;7.232;2022-08-24T18:05:44;2.93;;;2.57;;
12950;SDS011;6540;50.858;7.232;2022-08-24T18:08:09;4.10;;;2.53;;
12950;SDS011;6540;50.858;7.232;2022-08-24T18:10:35;3.63;;;2.77;;
12950;SDS011;6540;50.858;7.232;2022-08-24T18:13:01;3.93;;;2.90;;
12950;SDS011;6540;50.858;7.232;2022-08-24T18:15:27;3.20;;;2.60;;
12950;SDS011;6540;50.858;7.232;2022-08-24T18:17:56;5.37;;;2.60;;
12950;SDS011;6540;50.858;7.232;2022-08-24T18:20:26;2.80;;;2.60;;
12950;SDS011;6540;50.858;7.232;2022-08-24T18:22:53;3.40;;;3.10;;
12950;SDS011;6540;50.858;7.232;2022-08-24T18:25:20;3.70;;;2.80;;
12950;SDS011;6540;50.858;7.232;2022-08-24T18:27:50;4.47;;;2.73;;
12950;SDS011;6540;50.858;7.232;2022-08-24T18:30:20;5.33;;;2.97;;
12950;SDS011;6540;50.858;7.232;2022-08-24T18:32:52;2.87;;;2.67;;
12950;SDS011;6540;50.858;7.232;2022-08-24T18:35:18;4.23;;;2.80;;
12950;SDS011;6540;50.858;7.232;2022-08-24T18:37:44;2.47;;;2.27;;
12950;SDS011;6540;50.858;7.232;2022-08-24T18:40:11;3.67;;;2.70;;
12950;SDS011;6540;50.858;7.232;2022-08-24T18:42:38;3.70;;;2.90;;
12950;SDS011;6540;50.858;7.232;2022-08-24T18:45:07;3.30;;;3.00;;
12950;SDS011;6540;50.858;7.232;2022-08-24T18:47:34;4.07;;;3.07;;
12950;SDS011;6540;50.858;7.232;2022-08-24T18:50:00;5.83;;;3.47;;
12950;SDS011;6540;50.858;7.232;2022-08-24T18:52:25;3.37;;;2.70;;
12950;SDS011;6540;50.858;7.232;2022-08-24T18:54:51;3.37;;;3.07;;
12950;SDS011;6540;50.858;7.232;2022-08-24T18:57:17;4.20;;;2.90;;
12950;SDS011;6540;50.858;7.232;2022-08-24T18:59:44;2.70;;;2.50;;
12950;SDS011;6540;50.858;7.232;2022-08-24T19:02:11;4.43;;;3.00;;
12950;SDS011;6540;50.858;7.232;2022-08-24T19:04:54;3.43;;;3.13;;
12950;SDS011;6540;50.858;7.232;2022-08-24T19:07:25;3.77;;;2.93;;
12950;SDS011;6540;50.858;7.232;2022-08-24T19:09:52;5.23;;;3.10;;
12950;SDS011;6540;50.858;7.232;2022-08-24T19:12:17;4.47;;;3.23;;
12950;SDS011;6540;50.858;7.232;2022-08-24T19:14:44;3.73;;;3.20;;
12950;SDS011;6540;50.858;7.232;2022-08-24T19:17:11;3.13;;;2.83;;
12950;SDS011;6540;50.858;7.232;2022-08-24T19:19:37;6.33;;;3.17;;
12950;SDS011;6540;50.858;7.232;2022-08-24T19:22:03;4.43;;;3.03;;
12950;SDS011;6540;50.858;7.232;2022-08-24T19:24:28;2.83;;;2.60;;
12950;SDS011;6540;50.858;7.232;2022-08-24T19:26:56;3.57;;;3.27;;
12950;SDS011;6540;50.858;7.232;2022-08-24T19:29:21;3.13;;;2.83;;
12950;SDS011;6540;50.858;7.232;2022-08-24T19:31:47;6.87;;;3.13;;
12950;SDS011;6540;50.858;7.232;2022-08-24T19:34:14;5.27;;;3.23;;
12950;SDS011;6540;50.858;7.232;2022-08-24T19:36:40;4.73;;;3.10;;
12950;SDS011;6540;50.858;7.232;2022-08-24T19:39:06;3.43;;;3.13;;
12950;SDS011;6540;50.858;7.232;2022-08-24T19:41:32;3.77;;;3.10;;
12950;SDS011;6540;50.858;7.232;2022-08-24T19:44:00;3.73;;;2.93;;
12950;SDS011;6540;50.858;7.232;2022-08-24T19:46:44;4.43;;;3.20;;
12950;SDS011;6540;50.858;7.232;2022-08-24T19:49:10;4.93;;;3.60;;
12950;SDS011;6540;50.858;7.232;2022-08-24T19:51:36;4.30;;;3.23;;
12950;SDS011;6540;50.858;7.232;2022-08-24T19:54:02;3.17;;;2.87;;
12950;SDS011;6540;50.858;7.232;2022-08-24T19:56:28;3.33;;;3.00;;
12950;SDS011;6540;50.858;7.232;2022-08-24T19:58:58;5.33;;;2.90;;
12950;SDS011;6540;50.858;7.232;2022-08-24T20:01:35;4.97;;;3.10;;